地図

経路データ

SID SEASON NUMBER BASIN SUBBASIN NAME ISO_TIME NATURE LAT LON WMO_WIND WMO_PRES WMO_AGENCY TRACK_TYPE DIST2LAND LANDFALL IFLAG USA_AGENCY USA_ATCF_ID USA_LAT USA_LON USA_RECORD USA_STATUS USA_WIND USA_PRES USA_SSHS USA_R34_NE USA_R34_SE USA_R34_SW USA_R34_NW USA_R50_NE USA_R50_SE USA_R50_SW USA_R50_NW USA_R64_NE USA_R64_SE USA_R64_SW USA_R64_NW USA_POCI USA_ROCI USA_RMW USA_EYE TOKYO_LAT TOKYO_LON TOKYO_GRADE TOKYO_WIND TOKYO_PRES TOKYO_R50_DIR TOKYO_R50_LONG TOKYO_R50_SHORT TOKYO_R30_DIR TOKYO_R30_LONG TOKYO_R30_SHORT TOKYO_LAND CMA_LAT CMA_LON CMA_CAT CMA_WIND CMA_PRES HKO_LAT HKO_LON HKO_CAT HKO_WIND HKO_PRES NEWDELHI_LAT NEWDELHI_LON NEWDELHI_GRADE NEWDELHI_WIND NEWDELHI_PRES NEWDELHI_CI NEWDELHI_DP NEWDELHI_POCI REUNION_LAT REUNION_LON REUNION_TYPE REUNION_WIND REUNION_PRES REUNION_TNUM REUNION_CI REUNION_RMW REUNION_R34_NE REUNION_R34_SE REUNION_R34_SW REUNION_R34_NW REUNION_R50_NE REUNION_R50_SE REUNION_R50_SW REUNION_R50_NW REUNION_R64_NE REUNION_R64_SE REUNION_R64_SW REUNION_R64_NW BOM_LAT BOM_LON BOM_TYPE BOM_WIND BOM_PRES BOM_TNUM BOM_CI BOM_RMW BOM_R34_NE BOM_R34_SE BOM_R34_SW BOM_R34_NW BOM_R50_NE BOM_R50_SE BOM_R50_SW BOM_R50_NW BOM_R64_NE BOM_R64_SE BOM_R64_SW BOM_R64_NW BOM_ROCI BOM_POCI BOM_EYE BOM_POS_METHOD BOM_PRES_METHOD NADI_LAT NADI_LON NADI_CAT NADI_WIND NADI_PRES WELLINGTON_LAT WELLINGTON_LON WELLINGTON_WIND WELLINGTON_PRES DS824_LAT DS824_LON DS824_STAGE DS824_WIND DS824_PRES TD9636_LAT TD9636_LON TD9636_STAGE TD9636_WIND TD9636_PRES TD9635_LAT TD9635_LON TD9635_WIND TD9635_PRES TD9635_ROCI NEUMANN_LAT NEUMANN_LON NEUMANN_CLASS NEUMANN_WIND NEUMANN_PRES MLC_LAT MLC_LON MLC_CLASS MLC_WIND MLC_PRES USA_GUST BOM_GUST BOM_GUST_PER REUNION_GUST REUNION_GUST_PER USA_SEAHGT USA_SEARAD_NE USA_SEARAD_SE USA_SEARAD_SW USA_SEARAD_NW STORM_SPEED STORM_DIR
2021234N11335 2021 61 NA NA JULIAN 2021-08-21 18:00:00 NR 11.2000 -24.9000 PROVISIONAL 892 892 O_____________ nhc_working_bt AL112021 11.2000 -24.9000 DB 15 -3 21 273
2021234N11335 2021 61 NA NA JULIAN 2021-08-21 21:00:00 NR 11.2482 -25.9499 PROVISIONAL 991 991 P_____________ AL112021 11.2482 -25.9499 DB 15 -3 21 273
2021234N11335 2021 61 NA NA JULIAN 2021-08-22 00:00:00 NR 11.3000 -27.0000 PROVISIONAL 1097 1097 O_____________ nhc_working_bt AL112021 11.3000 -27.0000 DB 15 -3 21 273
2021234N11335 2021 61 NA NA JULIAN 2021-08-22 03:00:00 NR 11.3696 -28.0502 PROVISIONAL 1206 1206 P_____________ AL112021 11.3696 -28.0502 DB 15 -3 21 276
2021234N11335 2021 61 NA NA JULIAN 2021-08-22 06:00:00 NR 11.5000 -29.1000 PROVISIONAL 1306 1306 O_____________ nhc_working_bt AL112021 11.5000 -29.1000 DB 15 -3 21 279
2021234N11335 2021 61 NA NA JULIAN 2021-08-22 09:00:00 NR 11.7047 -30.1577 PROVISIONAL 1415 1415 P_____________ AL112021 11.7047 -30.1577 DB 15 -3 21 284
2021234N11335 2021 61 NA NA JULIAN 2021-08-22 12:00:00 NR 12.0000 -31.2000 PROVISIONAL 1513 1513 O_____________ nhc_working_bt AL112021 12.0000 -31.2000 DB 15 -3 21 288
2021234N11335 2021 61 NA NA JULIAN 2021-08-22 15:00:00 NR 12.3471 -32.2154 PROVISIONAL 1612 1612 P_____________ AL112021 12.3471 -32.2154 DB 15 -3 21 292
2021234N11335 2021 61 NA NA JULIAN 2021-08-22 18:00:00 NR 12.8000 -33.2000 PROVISIONAL 1709 1709 O_____________ nhc_working_bt AL112021 12.8000 -33.2000 DB 15 -3 22 298
2021234N11335 2021 61 NA NA JULIAN 2021-08-22 21:00:00 NR 13.3473 -34.1802 PROVISIONAL 1809 1807 P_____________ AL112021 13.3473 -34.1802 DB 20 -3 22 303
2021234N11335 2021 61 NA NA JULIAN 2021-08-23 00:00:00 DS 14.0000 -35.1000 PROVISIONAL 1898 1898 O_____________ nhc_working_bt AL112021 14.0000 -35.1000 LO 25 -3 22 309
2021234N11335 2021 61 NA NA JULIAN 2021-08-23 03:00:00 DS 14.7271 -35.9304 PROVISIONAL 1979 1979 P_____________ AL112021 14.7271 -35.9304 LO 25 -3 22 314
2021234N11335 2021 61 NA NA JULIAN 2021-08-23 06:00:00 DS 15.5000 -36.7000 PROVISIONAL 2031 2020 O_____________ nhc_working_bt AL112021 15.5000 -36.7000 LO 25 -3 21 317
2021234N11335 2021 61 NA NA JULIAN 2021-08-23 09:00:00 DS 16.2341 -37.4140 PROVISIONAL 2020 2016 P_____________ AL112021 16.2341 -37.4140 LO 25 -3 21 316
2021234N11335 2021 61 NA NA JULIAN 2021-08-23 12:00:00 DS 17.0000 -38.2000 PROVISIONAL 2016 2008 O_____________ nhc_working_bt AL112021 17.0000 -38.2000 LO 25 1009 -3 1012 150 80 24 314
2021234N11335 2021 61 NA NA JULIAN 2021-08-23 15:00:00 DS 17.8573 -39.1900 PROVISIONAL 2013 2004 P_____________ AL112021 17.8573 -39.1900 LO 25 1009 -3 1012 150 80 26 310
2021234N11335 2021 61 NA NA JULIAN 2021-08-23 18:00:00 DS 18.7000 -40.3000 PROVISIONAL 2007 2000 O_____________ nhc_working_bt AL112021 18.7000 -40.3000 LO 25 1009 -3 1012 150 80 27 306
2021234N11335 2021 61 NA NA JULIAN 2021-08-23 21:00:00 DS 19.4295 -41.4360 PROVISIONAL 2000 1985 P_____________ AL112021 19.4295 -41.4360 LO 30 1009 -3 1012 150 80 26 303
2021234N11335 2021 61 NA NA JULIAN 2021-08-24 00:00:00 NR 20.1000 -42.6000 PROVISIONAL 1988 1980 O_____________ nhc_working_bt AL112021 20.1000 -42.6000 DB 35 1010 -3 40 1012 150 80 26 302
2021234N11335 2021 61 NA NA JULIAN 2021-08-24 03:00:00 NR 20.7642 -43.7509 PROVISIONAL 1988 1982 P_____________ AL112021 20.7642 -43.7509 DB 35 1010 -3 40 1012 150 60 25 301
2021234N11335 2021 61 NA NA JULIAN 2021-08-24 06:00:00 NR 21.4000 -44.9000 PROVISIONAL 1993 1988 O_____________ nhc_working_bt AL112021 21.4000 -44.9000 DB 35 1010 -3 40 1012 150 40 25 300
2021234N11335 2021 61 NA NA JULIAN 2021-08-24 09:00:00 NR 22.0143 -46.0583 PROVISIONAL 2001 1979 P_____________ AL112021 22.0143 -46.0583 DB 32 1010 -3 1012 150 40 25 299
2021234N11335 2021 61 NA NA JULIAN 2021-08-24 12:00:00 NR 22.6000 -47.2000 PROVISIONAL 1971 1874 O_____________ nhc_working_bt AL112021 22.6000 -47.2000 DB 30 1010 -3 1013 150 40 24 299
2021234N11335 2021 61 NA NA JULIAN 2021-08-24 15:00:00 NR 23.1870 -48.3301 PROVISIONAL 1874 1787 P_____________ AL112021 23.1870 -48.3301 DB 30 1010 -3 1013 150 40 23 299
2021234N11335 2021 61 NA NA JULIAN 2021-08-24 18:00:00 NR 23.7000 -49.4000 PROVISIONAL 1780 1703 O_____________ nhc_working_bt AL112021 23.7000 -49.4000 DB 30 1010 -3 1013 150 40 21 295
2021234N11335 2021 61 NA NA JULIAN 2021-08-24 21:00:00 NR 24.0792 -50.3887 PROVISIONAL 1697 1623 P_____________ AL112021 24.0792 -50.3887 DB 30 1011 -3 1013 135 40 19 292
2021234N11335 2021 61 NA NA JULIAN 2021-08-25 00:00:00 NR 24.4000 -51.3000 PROVISIONAL 1623 1562 O_____________ nhc_working_bt AL112021 24.4000 -51.3000 DB 30 1012 -3 1014 120 40 18 292
2021234N11335 2021 61 NA NA JULIAN 2021-08-25 03:00:00 NR 24.7421 -52.1880 PROVISIONAL 1552 1499 P_____________ AL112021 24.7421 -52.1880 DB 30 1012 -3 1015 120 40 17 294
2021234N11335 2021 61 NA NA JULIAN 2021-08-25 06:00:00 NR 25.1000 -53.0000 PROVISIONAL 1499 1460 O_____________ nhc_working_bt AL112021 25.1000 -53.0000 DB 30 1012 -3 1016 120 40 16 298
2021234N11335 2021 61 NA NA JULIAN 2021-08-25 09:00:00 NR 25.4998 -53.7600 PROVISIONAL 1451 1424 P_____________ AL112021 25.4998 -53.7600 DB 30 1012 -3 1016 120 40 15 302
2021234N11335 2021 61 NA NA JULIAN 2021-08-25 12:00:00 NR 25.9000 -54.4000 PROVISIONAL 1424 1402 O_____________ nhc_working_bt AL112021 25.9000 -54.4000 DB 30 1012 -3 1016 120 40 13 304
2021234N11335 2021 61 NA NA JULIAN 2021-08-25 15:00:00 NR 26.2123 -54.9404 PROVISIONAL 1402 1391 P_____________ AL112021 26.2123 -54.9404 DB 30 1012 -3 1016 120 40 11 311
2021234N11335 2021 61 NA NA JULIAN 2021-08-25 18:00:00 NR 26.6000 -55.3000 PROVISIONAL 1398 1397 O_____________ nhc_working_bt AL112021 26.6000 -55.3000 DB 30 1012 -3 1016 120 40 11 334
2021234N11335 2021 61 NA NA JULIAN 2021-08-25 21:00:00 NR 27.1973 -55.4678 PROVISIONAL 1426 1426 P_____________ AL112021 27.1973 -55.4678 DB 30 1013 -3 1016 120 40 13 352
2021234N11335 2021 61 NA NA JULIAN 2021-08-26 00:00:00 NR 27.9000 -55.5000 PROVISIONAL 1479 1479 O_____________ nhc_working_bt AL112021 27.9000 -55.5000 DB 30 1014 -3 1017 120 40 14 358
2021234N11335 2021 61 NA NA JULIAN 2021-08-26 03:00:00 NR 28.5925 -55.5226 PROVISIONAL 1534 1534 P_____________ AL112021 28.5925 -55.5226 DB 27 1014 -3 1016 120 40 14 0
2021234N11335 2021 61 NA NA JULIAN 2021-08-26 06:00:00 NR 29.3000 -55.5000 PROVISIONAL 1591 1591 O_____________ nhc_working_bt AL112021 29.3000 -55.5000 DB 25 1015 -3 1016 120 40 14 1
2021234N11335 2021 61 NA NA JULIAN 2021-08-26 09:00:00 NR 30.0298 -55.5092 PROVISIONAL 1649 1649 P_____________ AL112021 30.0298 -55.5092 DB 25 1014 -3 1016 120 40 14 4
2021234N11335 2021 61 NA NA JULIAN 2021-08-26 12:00:00 NR 30.7000 -55.4000 PROVISIONAL 1670 1635 O_____________ nhc_working_bt AL112021 30.7000 -55.4000 DB 25 1014 -3 1017 120 40 13 18
2021234N11335 2021 61 NA NA JULIAN 2021-08-26 15:00:00 NR 31.2225 -55.0674 PROVISIONAL 1635 1604 P_____________ AL112021 31.2225 -55.0674 DB 25 1014 -3 1017 120 45 12 34
2021234N11335 2021 61 NA NA JULIAN 2021-08-26 18:00:00 NR 31.7000 -54.6000 PROVISIONAL 1604 1556 O_____________ nhc_working_bt AL112021 31.7000 -54.6000 DB 25 1014 -3 1017 120 50 14 39
2021234N11335 2021 61 NA NA JULIAN 2021-08-26 21:00:00 NR 32.3030 -54.0489 PROVISIONAL 1560 1522 P_____________ AL112021 32.3030 -54.0489 DB 25 1014 -3 1017 120 50 14 38
2021234N11335 2021 61 NA NA JULIAN 2021-08-27 00:00:00 NR 32.8000 -53.6000 PROVISIONAL 1522 1505 O_____________ nhc_working_bt AL112021 32.8000 -53.6000 DB 25 1014 -3 1017 120 50 9 33
2021234N11335 2021 61 NA NA JULIAN 2021-08-27 03:00:00 NR 33.0246 -53.4964 PROVISIONAL 1505 1495 P_____________ AL112021 33.0246 -53.4964 DB 25 1014 -3 1017 120 55 3 14
2021234N11335 2021 61 NA NA JULIAN 2021-08-27 06:00:00 DS 33.1000 -53.5000 PROVISIONAL 1495 1488 O_____________ nhc_working_bt AL112021 33.1000 -53.5000 LO 25 1014 -3 1017 120 60 2 37
2021234N11335 2021 61 NA NA JULIAN 2021-08-27 09:00:00 DS 33.1800 -53.3575 PROVISIONAL 1488 1488 P_____________ AL112021 33.1800 -53.3575 LO 25 1014 -3 1017 120 60 3 68
2021234N11335 2021 61 NA NA JULIAN 2021-08-27 12:00:00 DS 33.2000 -53.2000 PROVISIONAL 1491 1491 O_____________ nhc_working_bt AL112021 33.2000 -53.2000 LO 25 1014 -3 1017 120 60 2 88
2021234N11335 2021 61 NA NA JULIAN 2021-08-27 15:00:00 DS 33.1875 -53.0925 PROVISIONAL 1491 1491 P_____________ AL112021 33.1875 -53.0925 LO 25 1014 -3 1017 120 60 2 121
2021234N11335 2021 61 NA NA JULIAN 2021-08-27 18:00:00 DS 33.1000 -53.0000 PROVISIONAL 1502 1502 O_____________ nhc_working_bt AL112021 33.1000 -53.0000 LO 25 1014 -3 1017 120 60 3 151
2021234N11335 2021 61 NA NA JULIAN 2021-08-27 21:00:00 DS 32.9224 -52.9151 PROVISIONAL 1524 1524 P_____________ AL112021 32.9224 -52.9151 LO 22 1014 -3 1017 120 60 4 157
2021234N11335 2021 61 NA NA JULIAN 2021-08-28 00:00:00 DS 32.7000 -52.8000 PROVISIONAL 1547 1547 O_____________ nhc_working_bt AL112021 32.7000 -52.8000 LO 20 1014 -3 1017 120 60 5 151
2021234N11335 2021 61 NA NA JULIAN 2021-08-28 03:00:00 DS 32.4849 -52.6300 PROVISIONAL 1570 1570 P_____________ AL112021 32.4849 -52.6300 LO 20 1014 -3 1017 120 55 5 140
2021234N11335 2021 61 NA NA JULIAN 2021-08-28 06:00:00 DS 32.3000 -52.4000 PROVISIONAL 1593 1593 O_____________ nhc_working_bt AL112021 32.3000 -52.4000 LO 20 1014 -3 1017 120 50 5 128
2021234N11335 2021 61 NA NA JULIAN 2021-08-28 09:00:00 DS 32.1548 -52.1373 PROVISIONAL 1605 1605 P_____________ AL112021 32.1548 -52.1373 LO 22 1013 -3 1017 120 50 5 111
2021234N11335 2021 61 NA NA JULIAN 2021-08-28 12:00:00 DS 32.1000 -51.8000 PROVISIONAL 1618 1618 O_____________ nhc_working_bt AL112021 32.1000 -51.8000 LO 25 1012 -3 1017 120 50 7 90
2021234N11335 2021 61 NA NA JULIAN 2021-08-28 15:00:00 DS 32.1551 -51.3651 PROVISIONAL 1610 1602 P_____________ AL112021 32.1551 -51.3651 LO 27 1011 -3 1017 120 50 8 75
2021234N11335 2021 61 NA NA JULIAN 2021-08-28 18:00:00 DS 32.3000 -50.9000 PROVISIONAL 1603 1594 O_____________ nhc_working_bt AL112021 32.3000 -50.9000 LO 30 1010 -3 1017 120 50 40 8 68
2021234N11335 2021 61 NA NA JULIAN 2021-08-28 21:00:00 DS 32.4472 -50.4994 PROVISIONAL 1597 1569 P_____________ AL112021 32.4472 -50.4994 LO 30 1010 -3 1017 120 50 8 59
2021234N11335 2021 61 NA NA JULIAN 2021-08-29 00:00:00 TS 32.7000 -50.1000 PROVISIONAL 1569 1531 O_____________ nhc_working_bt AL112021 32.7000 -50.1000 TD 30 1010 -1 1017 120 50 11 47
2021234N11335 2021 61 NA NA JULIAN 2021-08-29 03:00:00 TS 33.1717 -49.5757 PROVISIONAL 1521 1485 P_____________ AL112021 33.1119 -49.6945 TD 30 1009 -1 1017 120 40 13 42
2021234N11335 2021 61 NA NA JULIAN 2021-08-29 06:00:00 TS 33.6361 -49.0941 PROVISIONAL 1487 1452 O_____________ nhc_working_bt AL112021 33.6000 -49.2000 TD 30 1009 -1 1017 120 30 40 12 44
2021234N11335 2021 61 NA NA JULIAN 2021-08-29 09:00:00 TS 34.0040 -48.5947 PROVISIONAL 1454 1417 P_____________ AL112021 34.0040 -48.5947 TD 37 1003 0 25 30 1013 120 30 14 51
2021234N11335 2021 61 NA NA JULIAN 2021-08-29 12:00:00 TS 34.5000 -47.8000 PROVISIONAL 1420 1372 O_____________ nhc_working_bt AL112021 34.5000 -47.8000 TS 45 998 0 50 60 1010 120 30 55 19 51
2021234N11335 2021 61 NA NA JULIAN 2021-08-29 15:00:00 TS 35.2192 -46.8052 PROVISIONAL 1375 1332 P_____________ AL112021 35.2192 -46.8052 TS 47 996 0 60 75 1010 120 27 23 50
2021234N11335 2021 61 NA NA JULIAN 2021-08-29 18:00:00 TS 36.0000 -45.6000 PROVISIONAL 1336 1323 O_____________ nhc_working_bt AL112021 36.0000 -45.6000 TS 50 995 0 70 90 40 40 1010 120 25 60 12 30 80 40 25 55
2021234N11335 2021 61 NA NA JULIAN 2021-08-29 21:00:00 TS 36.6886 -44.2435 PROVISIONAL 1327 1322 P_____________ AL112021 36.6886 -44.2435 TS 50 995 0 70 90 40 40 1010 120 25 12 30 100 65 26 60
2021234N11335 2021 61 NA NA JULIAN 2021-08-30 00:00:00 ET 37.3000 -42.8000 PROVISIONAL 1341 O_____________ nhc_working_bt AL112021 37.3000 -42.8000 EX 50 995 -4 70 90 40 40 1010 120 25 60 12 30 120 90 60 26 62

IBTrACS Databaseについて

本データベースは、米国NOAAが公開する1842年以降の世界の熱帯低気圧のベストトラックデータアーカイブInternational Best Track Archive for Climate Stewardship (IBTrACS)を、ウェブで閲覧しやすい形式に変換したものです。

最終更新日:2022-09-28